CPA584 VHHH-RJCC
Flight info
| Callsign | CPA584 |
|---|---|
| Flight time | 4h 7m |
| Altitude | 39000 |
| Route | DALOL V631 ENVAR M750 MOMPA Y451 HKC Y45 MARCO Y141 SAMON Y14 GOLDO Y19 MRE Y13 MEKAB Y137 NONUT Y11 NAVER |
| Aircraft | A35K/H-SDE2E3GHIJ1J3J4J5LM1ORWXY/LB1D1 |
Departure
| Time | 2026-05-05 02:29 |
|---|---|
| Airport | Hong Kong International Airport (VHHH) |
Arrival
| Time | 2026-05-05 06:36 |
|---|---|
| Airport | New Chitose Airport (RJCC) |
| Time | Latitude | Longitude | Altitude | Speed | Heading |
|---|---|---|---|---|---|
| 2026-05-05 02:05 | 22.31295 | 113.92976 | 38 ft | 0 kts | 341° |
| 2026-05-05 02:19 | 22.31286 | 113.92979 | 38 ft | 4 kts | 341° |
| 2026-05-05 02:19 | 22.31260 | 113.92989 | 35 ft | 4 kts | 341° |
| 2026-05-05 02:19 | 22.31239 | 113.92996 | 34 ft | 4 kts | 333° |
| 2026-05-05 02:19 | 22.31221 | 113.93014 | 35 ft | 4 kts | 288° |
| 2026-05-05 02:20 | 22.31220 | 113.93039 | 34 ft | 3 kts | 251° |
| 2026-05-05 02:20 | 22.31229 | 113.93066 | 36 ft | 4 kts | 251° |
| 2026-05-05 02:20 | 22.31233 | 113.93077 | 35 ft | 0 kts | 251° |
| 2026-05-05 02:23 | 22.31227 | 113.93058 | 36 ft | 9 kts | 251° |
| 2026-05-05 02:23 | 22.31193 | 113.92956 | 38 ft | 18 kts | 250° |
| 2026-05-05 02:23 | 22.31134 | 113.92872 | 38 ft | 18 kts | 208° |
| 2026-05-05 02:24 | 22.30993 | 113.92798 | 38 ft | 27 kts | 206° |
| 2026-05-05 02:24 | 22.30843 | 113.92707 | 38 ft | 22 kts | 232° |
| 2026-05-05 02:24 | 22.30784 | 113.92547 | 38 ft | 25 kts | 250° |
| 2026-05-05 02:24 | 22.30719 | 113.92346 | 38 ft | 31 kts | 250° |
| 2026-05-05 02:25 | 22.30641 | 113.92105 | 38 ft | 37 kts | 251° |
| 2026-05-05 02:25 | 22.30554 | 113.91830 | 38 ft | 41 kts | 251° |
| 2026-05-05 02:25 | 22.30467 | 113.91562 | 38 ft | 36 kts | 251° |
| 2026-05-05 02:25 | 22.30382 | 113.91300 | 38 ft | 38 kts | 251° |
| 2026-05-05 02:26 | 22.30324 | 113.91122 | 38 ft | 38 kts | 251° |
| 2026-05-05 02:26 | 22.30205 | 113.90752 | 38 ft | 40 kts | 251° |
| 2026-05-05 02:26 | 22.30144 | 113.90564 | 38 ft | 40 kts | 251° |
| 2026-05-05 02:26 | 22.30051 | 113.90273 | 38 ft | 41 kts | 251° |
| 2026-05-05 02:27 | 22.29966 | 113.90011 | 38 ft | 27 kts | 251° |
| 2026-05-05 02:27 | 22.29907 | 113.89825 | 38 ft | 22 kts | 251° |
| 2026-05-05 02:27 | 22.29830 | 113.89735 | 38 ft | 15 kts | 177° |
| 2026-05-05 02:27 | 22.29727 | 113.89772 | 38 ft | 17 kts | 160° |
| 2026-05-05 02:28 | 22.29646 | 113.89858 | 36 ft | 17 kts | 92° |
| 2026-05-05 02:28 | 22.29662 | 113.89933 | 36 ft | 0 kts | 72° |
| 2026-05-05 02:28 | 22.29691 | 113.90025 | 36 ft | 43 kts | 70° |
| 2026-05-05 02:28 | 22.29873 | 113.90588 | 37 ft | 113 kts | 71° |
| 2026-05-05 02:29 | 22.30198 | 113.91590 | 120 ft | 162 kts | 71° |
| 2026-05-05 02:29 | 22.30575 | 113.92705 | 895 ft | 157 kts | 72° |
| 2026-05-05 02:29 | 22.30928 | 113.93835 | 1521 ft | 168 kts | 75° |
| 2026-05-05 02:29 | 22.31309 | 113.95130 | 1865 ft | 193 kts | 75° |
| 2026-05-05 02:30 | 22.31746 | 113.96613 | 2208 ft | 218 kts | 74° |
| 2026-05-05 02:30 | 22.32246 | 113.98189 | 2904 ft | 223 kts | 72° |
| 2026-05-05 02:30 | 22.32784 | 113.99773 | 3600 ft | 228 kts | 71° |
| 2026-05-05 02:30 | 22.33330 | 114.01407 | 4245 ft | 235 kts | 70° |
| 2026-05-05 02:31 | 22.33753 | 114.03126 | 4979 ft | 239 kts | 83° |
| 2026-05-05 02:31 | 22.33674 | 114.04910 | 5700 ft | 239 kts | 105° |
| 2026-05-05 02:31 | 22.32986 | 114.06534 | 6416 ft | 239 kts | 128° |
| 2026-05-05 02:31 | 22.31797 | 114.07777 | 7068 ft | 242 kts | 149° |
| 2026-05-05 02:32 | 22.30249 | 114.08570 | 7559 ft | 251 kts | 168° |
| 2026-05-05 02:32 | 22.28536 | 114.08810 | 8281 ft | 253 kts | 181° |
| 2026-05-05 02:32 | 22.26704 | 114.08789 | 8863 ft | 267 kts | 184° |
| 2026-05-05 02:32 | 22.24838 | 114.08746 | 9546 ft | 277 kts | 183° |
| 2026-05-05 02:33 | 22.22882 | 114.08705 | 10262 ft | 284 kts | 183° |
| 2026-05-05 02:33 | 22.20843 | 114.08673 | 10707 ft | 303 kts | 183° |
| 2026-05-05 02:33 | 22.18661 | 114.08772 | 11043 ft | 325 kts | 174° |
| 2026-05-05 02:33 | 22.16433 | 114.09514 | 11403 ft | 348 kts | 154° |
| 2026-05-05 02:34 | 22.14447 | 114.11136 | 11803 ft | 369 kts | 139° |
| 2026-05-05 02:34 | 22.12607 | 114.13140 | 12222 ft | 381 kts | 136° |
| 2026-05-05 02:34 | 22.10767 | 114.15222 | 12754 ft | 387 kts | 136° |
| 2026-05-05 02:34 | 22.08892 | 114.17340 | 13339 ft | 393 kts | 136° |
| 2026-05-05 02:35 | 22.06970 | 114.19476 | 14066 ft | 399 kts | 137° |
| 2026-05-05 02:35 | 22.05008 | 114.21631 | 14678 ft | 406 kts | 136° |
| 2026-05-05 02:35 | 22.03057 | 114.23833 | 15279 ft | 408 kts | 136° |
| 2026-05-05 02:35 | 22.01090 | 114.26056 | 15788 ft | 412 kts | 136° |
| 2026-05-05 02:36 | 21.99102 | 114.28298 | 16261 ft | 416 kts | 136° |
| 2026-05-05 02:36 | 21.97287 | 114.30766 | 16735 ft | 424 kts | 125° |
| 2026-05-05 02:36 | 21.96006 | 114.33655 | 17218 ft | 432 kts | 111° |
| 2026-05-05 02:36 | 21.95148 | 114.36778 | 17693 ft | 438 kts | 105° |
| 2026-05-05 02:37 | 21.94510 | 114.40007 | 18132 ft | 444 kts | 102° |
| 2026-05-05 02:37 | 21.93975 | 114.43314 | 18463 ft | 451 kts | 101° |
| 2026-05-05 02:37 | 21.93475 | 114.46665 | 18867 ft | 455 kts | 101° |
| 2026-05-05 02:37 | 21.92967 | 114.50045 | 19275 ft | 459 kts | 101° |
| 2026-05-05 02:38 | 21.92435 | 114.53442 | 19667 ft | 462 kts | 101° |
| 2026-05-05 02:38 | 21.91879 | 114.56864 | 20067 ft | 466 kts | 102° |
| 2026-05-05 02:38 | 21.91301 | 114.60313 | 20477 ft | 470 kts | 102° |
| 2026-05-05 02:38 | 21.90709 | 114.63787 | 20888 ft | 473 kts | 102° |
| 2026-05-05 02:39 | 21.90108 | 114.67286 | 21282 ft | 477 kts | 102° |
| 2026-05-05 02:39 | 21.89499 | 114.70815 | 21681 ft | 481 kts | 102° |
| 2026-05-05 02:39 | 21.88886 | 114.74369 | 22091 ft | 485 kts | 102° |
| 2026-05-05 02:39 | 21.88268 | 114.77954 | 22497 ft | 489 kts | 102° |
| 2026-05-05 02:40 | 21.87645 | 114.81571 | 22908 ft | 493 kts | 102° |
| 2026-05-05 02:40 | 21.87017 | 114.85214 | 23318 ft | 497 kts | 102° |
| 2026-05-05 02:40 | 21.86383 | 114.88883 | 23687 ft | 501 kts | 101° |
| 2026-05-05 02:40 | 21.85753 | 114.92532 | 24015 ft | 504 kts | 102° |
| 2026-05-05 02:41 | 21.85101 | 114.96298 | 24380 ft | 507 kts | 102° |
| 2026-05-05 02:41 | 21.84453 | 115.00037 | 24753 ft | 510 kts | 102° |
| 2026-05-05 02:41 | 21.83800 | 115.03799 | 25120 ft | 514 kts | 102° |
| 2026-05-05 02:41 | 21.83150 | 115.07539 | 25502 ft | 517 kts | 102° |
| 2026-05-05 02:42 | 21.82487 | 115.11348 | 25942 ft | 520 kts | 102° |
| 2026-05-05 02:42 | 21.81818 | 115.15184 | 26364 ft | 523 kts | 102° |
| 2026-05-05 02:42 | 21.81145 | 115.19040 | 26807 ft | 526 kts | 102° |
| 2026-05-05 02:42 | 21.80466 | 115.22926 | 27249 ft | 530 kts | 102° |
| 2026-05-05 02:43 | 21.79782 | 115.26829 | 27681 ft | 533 kts | 102° |
| 2026-05-05 02:43 | 21.79093 | 115.30759 | 28122 ft | 536 kts | 102° |
| 2026-05-05 02:43 | 21.78399 | 115.34714 | 28546 ft | 539 kts | 102° |
| 2026-05-05 02:43 | 21.77700 | 115.38690 | 28957 ft | 543 kts | 102° |
| 2026-05-05 02:44 | 21.76995 | 115.42691 | 29347 ft | 546 kts | 102° |
| 2026-05-05 02:44 | 21.76285 | 115.46718 | 29722 ft | 550 kts | 102° |
| 2026-05-05 02:44 | 21.75570 | 115.50767 | 30082 ft | 553 kts | 102° |
| 2026-05-05 02:44 | 21.74851 | 115.54841 | 30388 ft | 556 kts | 102° |
| 2026-05-05 02:45 | 21.74382 | 115.58981 | 30676 ft | 560 kts | 93° |
| 2026-05-05 02:45 | 21.74237 | 115.63179 | 30977 ft | 563 kts | 92° |
| 2026-05-05 02:45 | 21.74173 | 115.67392 | 31321 ft | 563 kts | 91° |
| 2026-05-05 02:45 | 21.74154 | 115.71595 | 31795 ft | 561 kts | 90° |
| 2026-05-05 02:46 | 21.74151 | 115.75790 | 32220 ft | 560 kts | 90° |
| 2026-05-05 02:46 | 21.74151 | 115.79976 | 32628 ft | 560 kts | 90° |
| 2026-05-05 02:46 | 21.74146 | 115.84162 | 33038 ft | 559 kts | 90° |
| 2026-05-05 02:46 | 21.74134 | 115.88342 | 33440 ft | 558 kts | 90° |
| 2026-05-05 02:47 | 21.74117 | 115.92511 | 33845 ft | 558 kts | 90° |
| 2026-05-05 02:47 | 21.74095 | 115.96684 | 34196 ft | 557 kts | 90° |
| 2026-05-05 02:47 | 21.74071 | 116.00837 | 34592 ft | 554 kts | 90° |
| 2026-05-05 02:47 | 21.74046 | 116.04969 | 34983 ft | 552 kts | 90° |
| 2026-05-05 02:48 | 21.74019 | 116.09087 | 35346 ft | 550 kts | 90° |
| 2026-05-05 02:48 | 21.73991 | 116.13200 | 35700 ft | 549 kts | 90° |
| 2026-05-05 02:48 | 21.73963 | 116.17297 | 36045 ft | 547 kts | 90° |
| 2026-05-05 02:48 | 21.73934 | 116.21384 | 36375 ft | 546 kts | 90° |
| 2026-05-05 02:49 | 21.73904 | 116.25465 | 36663 ft | 545 kts | 90° |
| 2026-05-05 02:49 | 21.73873 | 116.29538 | 36967 ft | 544 kts | 90° |
| 2026-05-05 02:49 | 21.73841 | 116.33603 | 37267 ft | 543 kts | 90° |
| 2026-05-05 02:49 | 21.73808 | 116.37663 | 37561 ft | 542 kts | 90° |
| 2026-05-05 02:50 | 21.73775 | 116.41710 | 37841 ft | 541 kts | 90° |
| 2026-05-05 02:50 | 21.73740 | 116.45751 | 38125 ft | 540 kts | 90° |
| 2026-05-05 02:50 | 21.73705 | 116.49781 | 38383 ft | 539 kts | 90° |
| 2026-05-05 02:50 | 21.73669 | 116.53811 | 38644 ft | 538 kts | 90° |
| 2026-05-05 02:51 | 21.73631 | 116.57832 | 38847 ft | 537 kts | 90° |
| 2026-05-05 02:51 | 21.73593 | 116.61846 | 38996 ft | 538 kts | 90° |
| 2026-05-05 02:51 | 21.73554 | 116.65823 | 39033 ft | 541 kts | 90° |
| 2026-05-05 02:52 | 21.73490 | 116.73911 | 39030 ft | 540 kts | 88° |
| 2026-05-05 02:52 | 21.74731 | 116.81818 | 39040 ft | 536 kts | 69° |
| 2026-05-05 02:53 | 21.77270 | 116.89362 | 39033 ft | 537 kts | 66° |
| 2026-05-05 02:53 | 21.80014 | 116.96832 | 39035 ft | 537 kts | 66° |
| 2026-05-05 02:54 | 21.82763 | 117.04305 | 39034 ft | 537 kts | 66° |
| 2026-05-05 02:54 | 21.85483 | 117.11798 | 39035 ft | 537 kts | 66° |
| 2026-05-05 02:55 | 21.88184 | 117.19295 | 39034 ft | 537 kts | 66° |
| 2026-05-05 02:55 | 21.90878 | 117.26794 | 39032 ft | 537 kts | 66° |
| 2026-05-05 02:56 | 21.93571 | 117.34297 | 39054 ft | 537 kts | 66° |
| 2026-05-05 02:56 | 21.96268 | 117.41818 | 39039 ft | 539 kts | 66° |
| 2026-05-05 02:57 | 21.99062 | 117.49309 | 39031 ft | 538 kts | 60° |
| 2026-05-05 02:57 | 22.02738 | 117.56291 | 39032 ft | 535 kts | 56° |
| 2026-05-05 02:58 | 22.06613 | 117.63136 | 39029 ft | 535 kts | 55° |
| 2026-05-05 02:58 | 22.10521 | 117.69968 | 39040 ft | 535 kts | 55° |
| 2026-05-05 02:59 | 22.14389 | 117.76765 | 39036 ft | 535 kts | 55° |
| 2026-05-05 02:59 | 22.18273 | 117.83625 | 39036 ft | 537 kts | 55° |
| 2026-05-05 03:00 | 22.22160 | 117.90505 | 39035 ft | 537 kts | 55° |
| 2026-05-05 03:00 | 22.26049 | 117.97398 | 39038 ft | 537 kts | 55° |
| 2026-05-05 03:01 | 22.29948 | 118.04280 | 39046 ft | 537 kts | 54° |
| 2026-05-05 03:01 | 22.33936 | 118.11092 | 39037 ft | 537 kts | 54° |
| 2026-05-05 03:02 | 22.37938 | 118.17902 | 39053 ft | 537 kts | 54° |
| 2026-05-05 03:02 | 22.41920 | 118.24747 | 39040 ft | 539 kts | 54° |
| 2026-05-05 03:03 | 22.45838 | 118.31661 | 39034 ft | 540 kts | 55° |
| 2026-05-05 03:03 | 22.49740 | 118.38590 | 39032 ft | 540 kts | 55° |
| 2026-05-05 03:04 | 22.53648 | 118.45522 | 39033 ft | 539 kts | 55° |
| 2026-05-05 03:04 | 22.57553 | 118.52443 | 39034 ft | 539 kts | 55° |
| 2026-05-05 03:05 | 22.61481 | 118.59354 | 39034 ft | 539 kts | 55° |
| 2026-05-05 03:05 | 22.65421 | 118.66252 | 39037 ft | 539 kts | 55° |
| 2026-05-05 03:06 | 22.69355 | 118.73159 | 39034 ft | 538 kts | 55° |
| 2026-05-05 03:06 | 22.73278 | 118.80066 | 39034 ft | 538 kts | 55° |
| 2026-05-05 03:07 | 22.77197 | 118.86979 | 39034 ft | 538 kts | 55° |
| 2026-05-05 03:07 | 22.81116 | 118.93901 | 39042 ft | 539 kts | 55° |
| 2026-05-05 03:08 | 22.85046 | 119.00847 | 39033 ft | 540 kts | 55° |
| 2026-05-05 03:08 | 22.88970 | 119.07797 | 39037 ft | 541 kts | 55° |
| 2026-05-05 03:09 | 22.92892 | 119.14753 | 39034 ft | 541 kts | 55° |
| 2026-05-05 03:09 | 22.96812 | 119.21714 | 39035 ft | 541 kts | 55° |
| 2026-05-05 03:10 | 23.00729 | 119.28678 | 39051 ft | 541 kts | 55° |
| 2026-05-05 03:10 | 23.04651 | 119.35660 | 39036 ft | 543 kts | 55° |
| 2026-05-05 03:11 | 23.08581 | 119.42666 | 39031 ft | 543 kts | 55° |
| 2026-05-05 03:11 | 23.12482 | 119.49630 | 39025 ft | 543 kts | 55° |
| 2026-05-05 03:12 | 23.16405 | 119.56645 | 39027 ft | 543 kts | 56° |
| 2026-05-05 03:12 | 23.20324 | 119.63665 | 39024 ft | 543 kts | 56° |
| 2026-05-05 03:13 | 23.24249 | 119.70692 | 39036 ft | 545 kts | 55° |
| 2026-05-05 03:13 | 23.28184 | 119.77744 | 39037 ft | 546 kts | 55° |
| 2026-05-05 03:14 | 23.32118 | 119.84807 | 39028 ft | 546 kts | 56° |
| 2026-05-05 03:14 | 23.35444 | 119.90633 | 39033 ft | 544 kts | 50° |
| 2026-05-05 03:15 | 23.40448 | 119.96694 | 39034 ft | 536 kts | 40° |
| 2026-05-05 03:15 | 23.45814 | 120.02308 | 39026 ft | 536 kts | 38° |
| 2026-05-05 03:16 | 23.51268 | 120.07855 | 39032 ft | 537 kts | 38° |
| 2026-05-05 03:16 | 23.56715 | 120.13425 | 39032 ft | 537 kts | 38° |
| 2026-05-05 03:17 | 23.62150 | 120.19025 | 39035 ft | 538 kts | 38° |
| 2026-05-05 03:17 | 23.67578 | 120.24641 | 39041 ft | 538 kts | 38° |
| 2026-05-05 03:18 | 23.73016 | 120.30272 | 39045 ft | 539 kts | 38° |
| 2026-05-05 03:18 | 23.78453 | 120.35909 | 39045 ft | 539 kts | 38° |
| 2026-05-05 03:19 | 23.86608 | 120.44376 | 39051 ft | 540 kts | 38° |
| 2026-05-05 03:19 | 23.92051 | 120.50038 | 39044 ft | 541 kts | 39° |
| 2026-05-05 03:20 | 23.97477 | 120.55751 | 39054 ft | 541 kts | 39° |
| 2026-05-05 03:20 | 24.02893 | 120.61477 | 39058 ft | 541 kts | 39° |
| 2026-05-05 03:21 | 24.08304 | 120.67200 | 39067 ft | 541 kts | 39° |
| 2026-05-05 03:21 | 24.13732 | 120.72941 | 39073 ft | 544 kts | 39° |
| 2026-05-05 03:22 | 24.19186 | 120.78716 | 39075 ft | 546 kts | 39° |
| 2026-05-05 03:22 | 24.24641 | 120.84502 | 39077 ft | 546 kts | 39° |
| 2026-05-05 03:23 | 24.30062 | 120.90259 | 39071 ft | 546 kts | 39° |
| 2026-05-05 03:23 | 24.35557 | 120.96093 | 39077 ft | 547 kts | 39° |
| 2026-05-05 03:24 | 24.40950 | 121.01921 | 39065 ft | 551 kts | 44° |
| 2026-05-05 03:24 | 24.45877 | 121.08399 | 39080 ft | 553 kts | 47° |
| 2026-05-05 03:25 | 24.50673 | 121.15009 | 39080 ft | 554 kts | 47° |
| 2026-05-05 03:25 | 24.55460 | 121.21645 | 39073 ft | 554 kts | 47° |
| 2026-05-05 03:26 | 24.60259 | 121.28284 | 39073 ft | 555 kts | 47° |
| 2026-05-05 03:26 | 24.65060 | 121.34932 | 39083 ft | 556 kts | 47° |
| 2026-05-05 03:27 | 24.69863 | 121.41591 | 39071 ft | 555 kts | 47° |
| 2026-05-05 03:27 | 24.74654 | 121.48245 | 39067 ft | 555 kts | 47° |
| 2026-05-05 03:28 | 24.79448 | 121.54908 | 39050 ft | 555 kts | 47° |
| 2026-05-05 03:28 | 24.84237 | 121.61571 | 39050 ft | 555 kts | 47° |
| 2026-05-05 03:29 | 24.89020 | 121.68239 | 39054 ft | 555 kts | 47° |
| 2026-05-05 03:29 | 24.93915 | 121.74794 | 39074 ft | 553 kts | 44° |
| 2026-05-05 03:30 | 24.99010 | 121.81163 | 39044 ft | 555 kts | 44° |
| 2026-05-05 03:30 | 25.04109 | 121.87558 | 39054 ft | 556 kts | 44° |
| 2026-05-05 03:31 | 25.09178 | 121.93995 | 39049 ft | 556 kts | 44° |
| 2026-05-05 03:31 | 25.14229 | 122.00455 | 39096 ft | 556 kts | 45° |
| 2026-05-05 03:32 | 25.19254 | 122.06968 | 39066 ft | 559 kts | 45° |
| 2026-05-05 03:32 | 25.24285 | 122.13509 | 39057 ft | 558 kts | 45° |
| 2026-05-05 03:33 | 25.29313 | 122.20046 | 39064 ft | 559 kts | 45° |
| 2026-05-05 03:33 | 25.34312 | 122.26550 | 39074 ft | 559 kts | 45° |
| 2026-05-05 03:34 | 25.39380 | 122.33153 | 39060 ft | 560 kts | 45° |
| 2026-05-05 03:34 | 25.44380 | 122.39677 | 39066 ft | 559 kts | 45° |
| 2026-05-05 03:35 | 25.49402 | 122.46244 | 39081 ft | 559 kts | 45° |
| 2026-05-05 03:35 | 25.54431 | 122.52807 | 39081 ft | 558 kts | 45° |
| 2026-05-05 03:36 | 25.59477 | 122.59358 | 39075 ft | 560 kts | 45° |
| 2026-05-05 03:36 | 25.64527 | 122.65918 | 39071 ft | 559 kts | 45° |
| 2026-05-05 03:37 | 25.69566 | 122.72485 | 39074 ft | 559 kts | 45° |
| 2026-05-05 03:37 | 25.74601 | 122.79057 | 39106 ft | 559 kts | 45° |
| 2026-05-05 03:38 | 25.79645 | 122.85649 | 39084 ft | 562 kts | 45° |
| 2026-05-05 03:38 | 25.84702 | 122.92271 | 39089 ft | 562 kts | 45° |
| 2026-05-05 03:39 | 25.89752 | 122.98895 | 39097 ft | 562 kts | 45° |
| 2026-05-05 03:39 | 25.94796 | 123.05533 | 39111 ft | 563 kts | 45° |
| 2026-05-05 03:40 | 25.99859 | 123.12189 | 39103 ft | 565 kts | 45° |
| 2026-05-05 03:40 | 26.04926 | 123.18861 | 39098 ft | 564 kts | 45° |
| 2026-05-05 03:41 | 26.09980 | 123.25531 | 39104 ft | 563 kts | 45° |
| 2026-05-05 03:41 | 26.15027 | 123.32202 | 39116 ft | 564 kts | 45° |
| 2026-05-05 03:42 | 26.20082 | 123.38892 | 39113 ft | 565 kts | 45° |
| 2026-05-05 03:42 | 26.25134 | 123.45590 | 39115 ft | 565 kts | 45° |
| 2026-05-05 03:43 | 26.30189 | 123.52301 | 39112 ft | 565 kts | 45° |
| 2026-05-05 03:43 | 26.35209 | 123.58976 | 39113 ft | 566 kts | 45° |
| 2026-05-05 03:44 | 26.40273 | 123.65718 | 39117 ft | 567 kts | 45° |
| 2026-05-05 03:44 | 26.45335 | 123.72472 | 39113 ft | 567 kts | 46° |
| 2026-05-05 03:45 | 26.50391 | 123.79228 | 39125 ft | 567 kts | 46° |
| 2026-05-05 03:45 | 26.55448 | 123.85989 | 39119 ft | 568 kts | 46° |
| 2026-05-05 03:46 | 26.60511 | 123.92766 | 39115 ft | 568 kts | 46° |
| 2026-05-05 03:46 | 26.65571 | 123.99557 | 39120 ft | 569 kts | 46° |
| 2026-05-05 03:47 | 26.70630 | 124.06345 | 39118 ft | 568 kts | 45° |
| 2026-05-05 03:47 | 26.75700 | 124.13123 | 39119 ft | 568 kts | 45° |
| 2026-05-05 03:48 | 26.80766 | 124.19907 | 39116 ft | 568 kts | 45° |
| 2026-05-05 03:48 | 26.85827 | 124.26702 | 39113 ft | 568 kts | 45° |
| 2026-05-05 03:49 | 26.90879 | 124.33498 | 39124 ft | 568 kts | 45° |
| 2026-05-05 03:49 | 26.95942 | 124.40318 | 39122 ft | 569 kts | 46° |
| 2026-05-05 03:50 | 27.01001 | 124.47152 | 39117 ft | 569 kts | 46° |
| 2026-05-05 03:50 | 27.06058 | 124.53979 | 39156 ft | 569 kts | 46° |
| 2026-05-05 03:51 | 27.11120 | 124.60818 | 39125 ft | 571 kts | 46° |
| 2026-05-05 03:51 | 27.16190 | 124.67683 | 39127 ft | 571 kts | 46° |
| 2026-05-05 03:52 | 27.21257 | 124.74557 | 39113 ft | 571 kts | 46° |
| 2026-05-05 03:52 | 27.26316 | 124.81432 | 39133 ft | 571 kts | 46° |
| 2026-05-05 03:53 | 27.31377 | 124.88319 | 39132 ft | 572 kts | 46° |
| 2026-05-05 03:53 | 27.36438 | 124.95218 | 39135 ft | 572 kts | 46° |
| 2026-05-05 03:54 | 27.41494 | 125.02120 | 39156 ft | 571 kts | 46° |
| 2026-05-05 03:54 | 27.46585 | 125.08997 | 39134 ft | 572 kts | 45° |
| 2026-05-05 03:55 | 27.51660 | 125.15823 | 39136 ft | 572 kts | 45° |
| 2026-05-05 03:55 | 27.56762 | 125.22709 | 39134 ft | 572 kts | 46° |
| 2026-05-05 03:56 | 27.61857 | 125.29611 | 39147 ft | 573 kts | 46° |
| 2026-05-05 03:56 | 27.66952 | 125.36527 | 39140 ft | 574 kts | 46° |
| 2026-05-05 03:57 | 27.72049 | 125.43457 | 39138 ft | 574 kts | 46° |
| 2026-05-05 03:57 | 27.77145 | 125.50395 | 39154 ft | 574 kts | 46° |
| 2026-05-05 03:58 | 27.82244 | 125.57349 | 39140 ft | 575 kts | 46° |
| 2026-05-05 03:58 | 27.87349 | 125.64321 | 39144 ft | 576 kts | 46° |
| 2026-05-05 03:59 | 27.92454 | 125.71306 | 39144 ft | 576 kts | 46° |
| 2026-05-05 03:59 | 27.97554 | 125.78296 | 39149 ft | 577 kts | 46° |
| 2026-05-05 04:00 | 28.02663 | 125.85308 | 39154 ft | 577 kts | 46° |
| 2026-05-05 04:00 | 28.06909 | 125.91144 | 39153 ft | 578 kts | 46° |
| 2026-05-05 04:01 | 28.12010 | 125.98169 | 39163 ft | 578 kts | 46° |
| 2026-05-05 04:01 | 28.17119 | 126.05213 | 39151 ft | 579 kts | 46° |
| 2026-05-05 04:02 | 28.22230 | 126.12274 | 39154 ft | 579 kts | 46° |
| 2026-05-05 04:02 | 28.27339 | 126.19344 | 39154 ft | 579 kts | 46° |
| 2026-05-05 04:03 | 28.32447 | 126.26423 | 39137 ft | 580 kts | 46° |
| 2026-05-05 04:03 | 28.37557 | 126.33517 | 39151 ft | 580 kts | 46° |
| 2026-05-05 04:04 | 28.42659 | 126.40614 | 39151 ft | 580 kts | 46° |
| 2026-05-05 04:04 | 28.47758 | 126.47716 | 39148 ft | 580 kts | 46° |
| 2026-05-05 04:05 | 28.52850 | 126.54821 | 39149 ft | 579 kts | 46° |
| 2026-05-05 04:05 | 28.57934 | 126.61927 | 39151 ft | 579 kts | 46° |
| 2026-05-05 04:06 | 28.63014 | 126.69041 | 39168 ft | 579 kts | 46° |
| 2026-05-05 04:06 | 28.68104 | 126.76178 | 39140 ft | 581 kts | 46° |
| 2026-05-05 04:07 | 28.73197 | 126.83333 | 39151 ft | 581 kts | 46° |
| 2026-05-05 04:07 | 28.78285 | 126.90494 | 39171 ft | 582 kts | 46° |
| 2026-05-05 04:08 | 28.83378 | 126.97674 | 39151 ft | 582 kts | 46° |
| 2026-05-05 04:08 | 28.88433 | 127.04812 | 39148 ft | 582 kts | 46° |
| 2026-05-05 04:09 | 28.93518 | 127.12005 | 39149 ft | 582 kts | 46° |
| 2026-05-05 04:09 | 28.98602 | 127.19210 | 39148 ft | 583 kts | 46° |
| 2026-05-05 04:10 | 29.03686 | 127.26427 | 39143 ft | 583 kts | 46° |
| 2026-05-05 04:10 | 29.08769 | 127.33656 | 39149 ft | 583 kts | 46° |
| 2026-05-05 04:11 | 29.13846 | 127.40888 | 39158 ft | 583 kts | 46° |
| 2026-05-05 04:11 | 29.18922 | 127.48131 | 39140 ft | 583 kts | 46° |
| 2026-05-05 04:12 | 29.23994 | 127.55381 | 39149 ft | 583 kts | 46° |
| 2026-05-05 04:12 | 29.29061 | 127.62638 | 39153 ft | 584 kts | 46° |
| 2026-05-05 04:13 | 29.34133 | 127.69912 | 39151 ft | 584 kts | 46° |
| 2026-05-05 04:13 | 29.39199 | 127.77192 | 39151 ft | 584 kts | 47° |
| 2026-05-05 04:14 | 29.44253 | 127.84470 | 39153 ft | 584 kts | 47° |
| 2026-05-05 04:14 | 29.49311 | 127.91765 | 39154 ft | 584 kts | 47° |
| 2026-05-05 04:15 | 29.54364 | 127.99066 | 39152 ft | 584 kts | 47° |
| 2026-05-05 04:15 | 29.59380 | 128.06320 | 39160 ft | 584 kts | 47° |
| 2026-05-05 04:16 | 29.64432 | 128.13633 | 39157 ft | 584 kts | 47° |
| 2026-05-05 04:16 | 29.69479 | 128.20954 | 39148 ft | 584 kts | 47° |
| 2026-05-05 04:17 | 29.74522 | 128.28284 | 39161 ft | 584 kts | 47° |
| 2026-05-05 04:17 | 29.79563 | 128.35625 | 39157 ft | 585 kts | 47° |
| 2026-05-05 04:18 | 29.84605 | 128.42980 | 39158 ft | 585 kts | 47° |
| 2026-05-05 04:18 | 29.89641 | 128.50340 | 39166 ft | 586 kts | 47° |
| 2026-05-05 04:19 | 29.94693 | 128.57736 | 39159 ft | 587 kts | 47° |
| 2026-05-05 04:19 | 29.99740 | 128.65140 | 39164 ft | 587 kts | 47° |
| 2026-05-05 04:20 | 30.04784 | 128.72554 | 39162 ft | 587 kts | 47° |
| 2026-05-05 04:20 | 30.09816 | 128.79962 | 39162 ft | 587 kts | 47° |
| 2026-05-05 04:21 | 30.14849 | 128.87386 | 39162 ft | 587 kts | 47° |
| 2026-05-05 04:21 | 30.19877 | 128.94815 | 39163 ft | 587 kts | 47° |
| 2026-05-05 04:22 | 30.24904 | 129.02263 | 39165 ft | 587 kts | 47° |
| 2026-05-05 04:22 | 30.29926 | 129.09718 | 39165 ft | 587 kts | 47° |
| 2026-05-05 04:23 | 30.34949 | 129.17176 | 39164 ft | 588 kts | 47° |
| 2026-05-05 04:23 | 30.39968 | 129.24645 | 39164 ft | 588 kts | 47° |
| 2026-05-05 04:24 | 30.44982 | 129.32123 | 39165 ft | 588 kts | 47° |
| 2026-05-05 04:25 | 30.52497 | 129.43361 | 39164 ft | 588 kts | 47° |
| 2026-05-05 04:25 | 30.57502 | 129.50862 | 39165 ft | 588 kts | 48° |
| 2026-05-05 04:26 | 30.62502 | 129.58371 | 39140 ft | 588 kts | 48° |
| 2026-05-05 04:26 | 30.67498 | 129.65886 | 39162 ft | 588 kts | 48° |
| 2026-05-05 04:27 | 30.72460 | 129.73365 | 39161 ft | 588 kts | 48° |
| 2026-05-05 04:27 | 30.77450 | 129.80901 | 39146 ft | 588 kts | 48° |
| 2026-05-05 04:28 | 30.82460 | 129.88423 | 39146 ft | 586 kts | 45° |
| 2026-05-05 04:28 | 30.85293 | 129.91775 | 39164 ft | 576 kts | 33° |
| 2026-05-05 04:28 | 30.88450 | 129.94590 | 39198 ft | 570 kts | 28° |
| 2026-05-05 04:29 | 30.94967 | 129.99807 | 39163 ft | 568 kts | 26° |
| 2026-05-05 04:29 | 31.01566 | 130.04870 | 39153 ft | 568 kts | 25° |
| 2026-05-05 04:30 | 31.08161 | 130.09944 | 39172 ft | 568 kts | 26° |
| 2026-05-05 04:30 | 31.14746 | 130.15059 | 39167 ft | 569 kts | 26° |
| 2026-05-05 04:31 | 31.21321 | 130.20194 | 39213 ft | 569 kts | 26° |
| 2026-05-05 04:31 | 31.27893 | 130.25336 | 39171 ft | 569 kts | 26° |
| 2026-05-05 04:32 | 31.34471 | 130.30490 | 39172 ft | 569 kts | 26° |
| 2026-05-05 04:32 | 31.41040 | 130.35645 | 39175 ft | 568 kts | 26° |
| 2026-05-05 04:33 | 31.47606 | 130.40804 | 39164 ft | 568 kts | 26° |
| 2026-05-05 04:33 | 31.54170 | 130.45969 | 39162 ft | 568 kts | 26° |
| 2026-05-05 04:34 | 31.60733 | 130.51156 | 39171 ft | 569 kts | 26° |
| 2026-05-05 04:34 | 31.67292 | 130.56345 | 39161 ft | 568 kts | 26° |
| 2026-05-05 04:35 | 31.73883 | 130.61464 | 39168 ft | 567 kts | 24° |
| 2026-05-05 04:35 | 31.80596 | 130.66294 | 39155 ft | 565 kts | 23° |
| 2026-05-05 04:36 | 31.87325 | 130.71097 | 39178 ft | 566 kts | 23° |
| 2026-05-05 04:36 | 31.94041 | 130.75960 | 39161 ft | 567 kts | 24° |
| 2026-05-05 04:37 | 32.00705 | 130.80831 | 39164 ft | 568 kts | 24° |
| 2026-05-05 04:37 | 32.07463 | 130.85788 | 39175 ft | 568 kts | 24° |
| 2026-05-05 04:38 | 32.14176 | 130.90726 | 39172 ft | 568 kts | 24° |
| 2026-05-05 04:38 | 32.20861 | 130.95570 | 39187 ft | 567 kts | 23° |
| 2026-05-05 04:39 | 32.27605 | 131.00413 | 39175 ft | 568 kts | 23° |
| 2026-05-05 04:39 | 32.34353 | 131.05280 | 39170 ft | 569 kts | 23° |
| 2026-05-05 04:40 | 32.41099 | 131.10167 | 39162 ft | 568 kts | 24° |
| 2026-05-05 04:40 | 32.47807 | 131.15125 | 39161 ft | 569 kts | 24° |
| 2026-05-05 04:41 | 32.54516 | 131.20119 | 39170 ft | 569 kts | 24° |
| 2026-05-05 04:41 | 32.61201 | 131.25123 | 39161 ft | 569 kts | 24° |
| 2026-05-05 04:42 | 32.67897 | 131.30144 | 39178 ft | 569 kts | 24° |
| 2026-05-05 04:42 | 32.74600 | 131.35155 | 39129 ft | 568 kts | 24° |
| 2026-05-05 04:43 | 32.81311 | 131.40165 | 39165 ft | 571 kts | 24° |
| 2026-05-05 04:43 | 32.88030 | 131.45135 | 39159 ft | 567 kts | 24° |
| 2026-05-05 04:44 | 32.94741 | 131.50058 | 39160 ft | 566 kts | 24° |
| 2026-05-05 04:44 | 33.01438 | 131.54994 | 39169 ft | 566 kts | 24° |
| 2026-05-05 04:45 | 33.08121 | 131.59945 | 39159 ft | 566 kts | 24° |
| 2026-05-05 04:45 | 33.14799 | 131.64910 | 39177 ft | 566 kts | 24° |
| 2026-05-05 04:46 | 33.21508 | 131.69788 | 39183 ft | 559 kts | 18° |
| 2026-05-05 04:46 | 33.28471 | 131.73623 | 39185 ft | 553 kts | 14° |
| 2026-05-05 04:47 | 33.35574 | 131.77281 | 39184 ft | 551 kts | 14° |
| 2026-05-05 04:47 | 33.41440 | 131.80270 | 39183 ft | 552 kts | 14° |
| 2026-05-05 04:48 | 33.48501 | 131.83883 | 39196 ft | 552 kts | 14° |
| 2026-05-05 04:48 | 33.56683 | 131.88100 | 39185 ft | 551 kts | 14° |
| 2026-05-05 04:49 | 33.62579 | 131.91147 | 39210 ft | 551 kts | 14° |
| 2026-05-05 04:49 | 33.69607 | 131.94785 | 39188 ft | 550 kts | 14° |
| 2026-05-05 04:50 | 33.76631 | 131.98427 | 39190 ft | 550 kts | 14° |
| 2026-05-05 04:50 | 33.83659 | 132.02074 | 39192 ft | 550 kts | 14° |
| 2026-05-05 04:51 | 33.90680 | 132.05707 | 39195 ft | 549 kts | 14° |
| 2026-05-05 04:51 | 33.97699 | 132.09356 | 39199 ft | 549 kts | 14° |
| 2026-05-05 04:52 | 34.04706 | 132.13025 | 39188 ft | 551 kts | 16° |
| 2026-05-05 04:52 | 34.08083 | 132.15293 | 39197 ft | 562 kts | 27° |
| 2026-05-05 04:52 | 34.11233 | 132.18150 | 39210 ft | 568 kts | 33° |
| 2026-05-05 04:53 | 34.17278 | 132.24325 | 39192 ft | 571 kts | 35° |
| 2026-05-05 04:53 | 34.23224 | 132.30687 | 39226 ft | 571 kts | 36° |
| 2026-05-05 04:54 | 34.29170 | 132.37045 | 39193 ft | 570 kts | 36° |
| 2026-05-05 04:54 | 34.35117 | 132.43369 | 39181 ft | 570 kts | 35° |
| 2026-05-05 04:55 | 34.41075 | 132.49687 | 39188 ft | 569 kts | 36° |
| 2026-05-05 04:55 | 34.47032 | 132.56018 | 39184 ft | 569 kts | 36° |
| 2026-05-05 04:56 | 34.52982 | 132.62348 | 39172 ft | 568 kts | 35° |
| 2026-05-05 04:56 | 34.58930 | 132.68671 | 39183 ft | 569 kts | 36° |
| 2026-05-05 04:57 | 34.64871 | 132.75024 | 39181 ft | 569 kts | 36° |
| 2026-05-05 04:57 | 34.70771 | 132.81350 | 39178 ft | 569 kts | 36° |
| 2026-05-05 04:58 | 34.76746 | 132.87767 | 39195 ft | 569 kts | 36° |
| 2026-05-05 04:58 | 34.82666 | 132.94137 | 39175 ft | 567 kts | 36° |
| 2026-05-05 04:59 | 34.88573 | 133.00503 | 39190 ft | 567 kts | 36° |
| 2026-05-05 04:59 | 34.94468 | 133.06871 | 39154 ft | 566 kts | 36° |
| 2026-05-05 05:00 | 35.00353 | 133.13238 | 39171 ft | 565 kts | 36° |
| 2026-05-05 05:00 | 35.06220 | 133.19593 | 39171 ft | 563 kts | 36° |
| 2026-05-05 05:01 | 35.12076 | 133.25945 | 39169 ft | 564 kts | 36° |
| 2026-05-05 05:01 | 35.17943 | 133.32318 | 39162 ft | 563 kts | 36° |
| 2026-05-05 05:02 | 35.23784 | 133.38684 | 39157 ft | 562 kts | 36° |
| 2026-05-05 05:02 | 35.29621 | 133.45054 | 39157 ft | 562 kts | 36° |
| 2026-05-05 05:03 | 35.35453 | 133.51435 | 39164 ft | 563 kts | 36° |
| 2026-05-05 05:03 | 35.41283 | 133.57836 | 39174 ft | 561 kts | 37° |
| 2026-05-05 05:04 | 35.47080 | 133.64214 | 39151 ft | 559 kts | 36° |
| 2026-05-05 05:04 | 35.52888 | 133.70596 | 39177 ft | 561 kts | 37° |
| 2026-05-05 05:05 | 35.58685 | 133.76987 | 39165 ft | 560 kts | 37° |
| 2026-05-05 05:05 | 35.64469 | 133.83380 | 39166 ft | 559 kts | 37° |
| 2026-05-05 05:06 | 35.70250 | 133.89786 | 39168 ft | 559 kts | 37° |
| 2026-05-05 05:06 | 35.76033 | 133.96203 | 39177 ft | 560 kts | 37° |
| 2026-05-05 05:07 | 35.81806 | 134.02623 | 39167 ft | 559 kts | 37° |
| 2026-05-05 05:07 | 35.87571 | 134.09048 | 39168 ft | 559 kts | 37° |
| 2026-05-05 05:08 | 35.93334 | 134.15484 | 39166 ft | 559 kts | 37° |
| 2026-05-05 05:08 | 35.99097 | 134.21933 | 39175 ft | 559 kts | 37° |
| 2026-05-05 05:09 | 36.04851 | 134.28385 | 39179 ft | 558 kts | 37° |
| 2026-05-05 05:09 | 36.10586 | 134.34831 | 39176 ft | 557 kts | 37° |
| 2026-05-05 05:10 | 36.16308 | 134.41273 | 39174 ft | 556 kts | 37° |
| 2026-05-05 05:10 | 36.22016 | 134.47750 | 39168 ft | 558 kts | 40° |
| 2026-05-05 05:11 | 36.26815 | 134.55383 | 39184 ft | 565 kts | 54° |
| 2026-05-05 05:11 | 36.30995 | 134.63638 | 39181 ft | 566 kts | 56° |
| 2026-05-05 05:12 | 36.35060 | 134.72005 | 39175 ft | 566 kts | 56° |
| 2026-05-05 05:12 | 36.39098 | 134.80317 | 39178 ft | 566 kts | 56° |
| 2026-05-05 05:13 | 36.43205 | 134.88730 | 39187 ft | 566 kts | 56° |
| 2026-05-05 05:13 | 36.47292 | 134.97097 | 39178 ft | 566 kts | 56° |
| 2026-05-05 05:14 | 36.51372 | 135.05466 | 39178 ft | 566 kts | 56° |
| 2026-05-05 05:14 | 36.55445 | 135.13845 | 39179 ft | 565 kts | 56° |
| 2026-05-05 05:15 | 36.59475 | 135.22159 | 39178 ft | 565 kts | 56° |
| 2026-05-05 05:15 | 36.63527 | 135.30539 | 39180 ft | 565 kts | 56° |
| 2026-05-05 05:16 | 36.67571 | 135.38924 | 39178 ft | 565 kts | 56° |
| 2026-05-05 05:16 | 36.71613 | 135.47323 | 39178 ft | 565 kts | 56° |
| 2026-05-05 05:17 | 36.75649 | 135.55733 | 39176 ft | 565 kts | 56° |
| 2026-05-05 05:17 | 36.79677 | 135.64147 | 39175 ft | 565 kts | 56° |
| 2026-05-05 05:18 | 36.83697 | 135.72568 | 39177 ft | 564 kts | 56° |
| 2026-05-05 05:18 | 36.87706 | 135.80986 | 39176 ft | 564 kts | 56° |
| 2026-05-05 05:19 | 36.91708 | 135.89409 | 39181 ft | 564 kts | 56° |
| 2026-05-05 05:19 | 36.95705 | 135.97842 | 39176 ft | 564 kts | 56° |
| 2026-05-05 05:20 | 36.99692 | 136.06280 | 39172 ft | 564 kts | 56° |
| 2026-05-05 05:20 | 37.03672 | 136.14730 | 39177 ft | 563 kts | 56° |
| 2026-05-05 05:21 | 37.07651 | 136.23184 | 39179 ft | 563 kts | 56° |
| 2026-05-05 05:21 | 37.11620 | 136.31642 | 39176 ft | 563 kts | 56° |
| 2026-05-05 05:22 | 37.15587 | 136.40118 | 39176 ft | 564 kts | 56° |
| 2026-05-05 05:22 | 37.19546 | 136.48603 | 39175 ft | 564 kts | 57° |
| 2026-05-05 05:23 | 37.23498 | 136.57093 | 39177 ft | 563 kts | 57° |
| 2026-05-05 05:23 | 37.27438 | 136.65581 | 39165 ft | 563 kts | 57° |
| 2026-05-05 05:24 | 37.31375 | 136.74083 | 39163 ft | 563 kts | 57° |
| 2026-05-05 05:24 | 37.35304 | 136.82584 | 39179 ft | 563 kts | 57° |
| 2026-05-05 05:25 | 37.39226 | 136.91097 | 39153 ft | 563 kts | 57° |
| 2026-05-05 05:25 | 37.43142 | 136.99622 | 39159 ft | 563 kts | 57° |
| 2026-05-05 05:26 | 37.47054 | 137.08161 | 39160 ft | 563 kts | 57° |
| 2026-05-05 05:26 | 37.50960 | 137.16707 | 39164 ft | 563 kts | 57° |
| 2026-05-05 05:27 | 37.54859 | 137.25261 | 39163 ft | 563 kts | 57° |
| 2026-05-05 05:27 | 37.60698 | 137.38110 | 39175 ft | 563 kts | 57° |
| 2026-05-05 05:28 | 37.64580 | 137.46684 | 39170 ft | 563 kts | 57° |
| 2026-05-05 05:28 | 37.68460 | 137.55274 | 39170 ft | 563 kts | 57° |
| 2026-05-05 05:29 | 37.71677 | 137.62413 | 39176 ft | 563 kts | 57° |
| 2026-05-05 05:29 | 37.75546 | 137.71021 | 39179 ft | 563 kts | 57° |
| 2026-05-05 05:30 | 37.79408 | 137.79635 | 39187 ft | 563 kts | 57° |
| 2026-05-05 05:30 | 37.83920 | 137.89727 | 39178 ft | 564 kts | 57° |
| 2026-05-05 05:31 | 37.87126 | 137.96920 | 39179 ft | 564 kts | 57° |
| 2026-05-05 05:31 | 37.90979 | 138.05583 | 39181 ft | 564 kts | 57° |
| 2026-05-05 05:32 | 37.94848 | 138.14308 | 39184 ft | 565 kts | 58° |
| 2026-05-05 05:32 | 37.98665 | 138.22936 | 39199 ft | 565 kts | 58° |
| 2026-05-05 05:33 | 38.02499 | 138.31627 | 39181 ft | 565 kts | 58° |
| 2026-05-05 05:33 | 38.06823 | 138.39863 | 39181 ft | 556 kts | 42° |
| 2026-05-05 05:34 | 38.09621 | 138.43180 | 39197 ft | 546 kts | 31° |
| 2026-05-05 05:34 | 38.12686 | 138.45997 | 39180 ft | 543 kts | 28° |
| 2026-05-05 05:34 | 38.18989 | 138.51257 | 39176 ft | 540 kts | 26° |
| 2026-05-05 05:35 | 38.25329 | 138.56370 | 39181 ft | 539 kts | 26° |
| 2026-05-05 05:35 | 38.31659 | 138.61517 | 39179 ft | 540 kts | 26° |
| 2026-05-05 05:36 | 38.37971 | 138.66705 | 39178 ft | 540 kts | 26° |
| 2026-05-05 05:36 | 38.44279 | 138.71919 | 39177 ft | 540 kts | 26° |
| 2026-05-05 05:37 | 38.50576 | 138.77136 | 39178 ft | 538 kts | 26° |
| 2026-05-05 05:37 | 38.56843 | 138.82338 | 39182 ft | 537 kts | 26° |
| 2026-05-05 05:38 | 38.63096 | 138.87535 | 39175 ft | 536 kts | 26° |
| 2026-05-05 05:38 | 38.69345 | 138.92741 | 39173 ft | 536 kts | 26° |
| 2026-05-05 05:39 | 38.75597 | 138.97959 | 39189 ft | 537 kts | 27° |
| 2026-05-05 05:39 | 38.81832 | 139.03175 | 39168 ft | 534 kts | 27° |
| 2026-05-05 05:40 | 38.88045 | 139.08386 | 39172 ft | 533 kts | 27° |
| 2026-05-05 05:40 | 38.94259 | 139.13606 | 39168 ft | 533 kts | 27° |
| 2026-05-05 05:41 | 39.00465 | 139.18831 | 39165 ft | 534 kts | 27° |
| 2026-05-05 05:41 | 39.06668 | 139.24065 | 39171 ft | 533 kts | 27° |
| 2026-05-05 05:42 | 39.12860 | 139.29302 | 39168 ft | 532 kts | 27° |
| 2026-05-05 05:42 | 39.19045 | 139.34543 | 39167 ft | 532 kts | 27° |
| 2026-05-05 05:43 | 39.25221 | 139.39787 | 39160 ft | 531 kts | 27° |
| 2026-05-05 05:43 | 39.31390 | 139.45037 | 39156 ft | 531 kts | 27° |
| 2026-05-05 05:44 | 39.37561 | 139.50300 | 39163 ft | 531 kts | 27° |
| 2026-05-05 05:44 | 39.43730 | 139.55572 | 39156 ft | 531 kts | 27° |
| 2026-05-05 05:45 | 39.49894 | 139.60852 | 39161 ft | 531 kts | 27° |
| 2026-05-05 05:45 | 39.56053 | 139.66140 | 39155 ft | 531 kts | 27° |
| 2026-05-05 05:46 | 39.62203 | 139.71430 | 39154 ft | 531 kts | 28° |
| 2026-05-05 05:46 | 39.68353 | 139.76732 | 39157 ft | 530 kts | 27° |
| 2026-05-05 05:47 | 39.74489 | 139.82034 | 39147 ft | 529 kts | 28° |
| 2026-05-05 05:47 | 39.80617 | 139.87341 | 39147 ft | 529 kts | 28° |
| 2026-05-05 05:48 | 39.86725 | 139.92679 | 39144 ft | 529 kts | 28° |
| 2026-05-05 05:48 | 39.92823 | 139.98050 | 39143 ft | 529 kts | 28° |
| 2026-05-05 05:49 | 39.98919 | 140.03431 | 39149 ft | 529 kts | 28° |
| 2026-05-05 05:49 | 40.05018 | 140.08819 | 39138 ft | 529 kts | 28° |
| 2026-05-05 05:50 | 40.11098 | 140.14203 | 39114 ft | 528 kts | 28° |
| 2026-05-05 05:50 | 40.17176 | 140.19596 | 39107 ft | 528 kts | 28° |
| 2026-05-05 05:51 | 40.23260 | 140.25009 | 39101 ft | 528 kts | 28° |
| 2026-05-05 05:51 | 40.29298 | 140.30391 | 39112 ft | 529 kts | 28° |
| 2026-05-05 05:52 | 40.35420 | 140.35859 | 39103 ft | 529 kts | 28° |
| 2026-05-05 05:52 | 40.41441 | 140.41256 | 39107 ft | 527 kts | 28° |
| 2026-05-05 05:53 | 40.47531 | 140.46721 | 39102 ft | 526 kts | 28° |
| 2026-05-05 05:53 | 40.53549 | 140.52122 | 39093 ft | 528 kts | 28° |
| 2026-05-05 05:54 | 40.59657 | 140.57613 | 39076 ft | 529 kts | 28° |
| 2026-05-05 05:54 | 40.65731 | 140.63101 | 39049 ft | 530 kts | 28° |
| 2026-05-05 05:55 | 40.71818 | 140.68574 | 39043 ft | 527 kts | 26° |
| 2026-05-05 05:55 | 40.78328 | 140.72656 | 39062 ft | 515 kts | 15° |
| 2026-05-05 05:56 | 40.85013 | 140.76013 | 39057 ft | 514 kts | 13° |
| 2026-05-05 05:56 | 40.91727 | 140.79265 | 39056 ft | 514 kts | 13° |
| 2026-05-05 05:57 | 40.98390 | 140.82529 | 39053 ft | 513 kts | 13° |
| 2026-05-05 05:57 | 41.05066 | 140.85832 | 39046 ft | 512 kts | 13° |
| 2026-05-05 05:58 | 41.11736 | 140.89146 | 39042 ft | 512 kts | 14° |
| 2026-05-05 05:58 | 41.18405 | 140.92468 | 39043 ft | 512 kts | 14° |
| 2026-05-05 05:59 | 41.25074 | 140.95795 | 39042 ft | 511 kts | 14° |
| 2026-05-05 05:59 | 41.31719 | 140.99120 | 39037 ft | 510 kts | 14° |
| 2026-05-05 06:00 | 41.38362 | 141.02405 | 39035 ft | 509 kts | 13° |
| 2026-05-05 06:00 | 41.44956 | 141.05896 | 39030 ft | 516 kts | 20° |
| 2026-05-05 06:01 | 41.51048 | 141.11105 | 39024 ft | 522 kts | 29° |
| 2026-05-05 06:01 | 41.56932 | 141.16797 | 39024 ft | 522 kts | 30° |
| 2026-05-05 06:02 | 41.62775 | 141.22569 | 39019 ft | 524 kts | 30° |
| 2026-05-05 06:02 | 41.68646 | 141.28358 | 39017 ft | 524 kts | 30° |
| 2026-05-05 06:03 | 41.74523 | 141.34139 | 39015 ft | 524 kts | 30° |
| 2026-05-05 06:03 | 41.80410 | 141.39933 | 39007 ft | 526 kts | 30° |
| 2026-05-05 06:04 | 41.86698 | 141.44627 | 39006 ft | 508 kts | 12° |
| 2026-05-05 06:04 | 41.93421 | 141.47054 | 39002 ft | 498 kts | 5° |
| 2026-05-05 06:05 | 42.00200 | 141.48940 | 38994 ft | 498 kts | 4° |
| 2026-05-05 06:05 | 42.07000 | 141.50809 | 38993 ft | 499 kts | 4° |
| 2026-05-05 06:06 | 42.13737 | 141.52620 | 38987 ft | 480 kts | 360° |
| 2026-05-05 06:06 | 42.17003 | 141.52899 | 38991 ft | 462 kts | 350° |
| 2026-05-05 06:06 | 42.20145 | 141.52430 | 38997 ft | 449 kts | 340° |
| 2026-05-05 06:07 | 42.25821 | 141.49466 | 38984 ft | 431 kts | 322° |
| 2026-05-05 06:07 | 42.30345 | 141.44409 | 38985 ft | 418 kts | 306° |
| 2026-05-05 06:08 | 42.33430 | 141.37883 | 38978 ft | 410 kts | 290° |
| 2026-05-05 06:08 | 42.34884 | 141.30510 | 38982 ft | 406 kts | 275° |
| 2026-05-05 06:09 | 42.34632 | 141.22902 | 38968 ft | 408 kts | 260° |
| 2026-05-05 06:09 | 42.32672 | 141.15696 | 38987 ft | 414 kts | 244° |
| 2026-05-05 06:10 | 42.29022 | 141.09594 | 38970 ft | 425 kts | 227° |
| 2026-05-05 06:10 | 42.26654 | 141.07116 | 38685 ft | 441 kts | 219° |
| 2026-05-05 06:10 | 42.24110 | 141.04717 | 38411 ft | 450 kts | 223° |
| 2026-05-05 06:11 | 42.21556 | 141.02207 | 38143 ft | 458 kts | 220° |
| 2026-05-05 06:11 | 42.18744 | 141.00093 | 37429 ft | 470 kts | 210° |
| 2026-05-05 06:11 | 42.15630 | 140.98562 | 36316 ft | 483 kts | 203° |
| 2026-05-05 06:11 | 42.13475 | 140.97723 | 35551 ft | 490 kts | 201° |
| 2026-05-05 06:12 | 42.09014 | 140.96125 | 34043 ft | 504 kts | 198° |
| 2026-05-05 06:12 | 42.06703 | 140.95634 | 33180 ft | 514 kts | 190° |
| 2026-05-05 06:12 | 42.03075 | 140.95621 | 31893 ft | 530 kts | 179° |
| 2026-05-05 06:12 | 41.99410 | 140.96579 | 30636 ft | 544 kts | 166° |
| 2026-05-05 06:13 | 41.95871 | 140.98523 | 29285 ft | 556 kts | 153° |
| 2026-05-05 06:13 | 41.92730 | 141.01528 | 28416 ft | 554 kts | 138° |
| 2026-05-05 06:13 | 41.90228 | 141.05416 | 27662 ft | 548 kts | 123° |
| 2026-05-05 06:13 | 41.88529 | 141.09917 | 27112 ft | 535 kts | 107° |
| 2026-05-05 06:14 | 41.87764 | 141.14666 | 26998 ft | 514 kts | 91° |
| 2026-05-05 06:14 | 41.87845 | 141.19427 | 26873 ft | 507 kts | 80° |
| 2026-05-05 06:14 | 41.88202 | 141.24136 | 26695 ft | 507 kts | 79° |
| 2026-05-05 06:14 | 41.88686 | 141.28813 | 26510 ft | 501 kts | 75° |
| 2026-05-05 06:15 | 41.89523 | 141.33318 | 26500 ft | 496 kts | 66° |
| 2026-05-05 06:15 | 41.90913 | 141.37510 | 26492 ft | 487 kts | 53° |
| 2026-05-05 06:15 | 41.92882 | 141.41090 | 26492 ft | 471 kts | 40° |
| 2026-05-05 06:15 | 41.95336 | 141.43904 | 26312 ft | 453 kts | 25° |
| 2026-05-05 06:16 | 41.98104 | 141.45717 | 25922 ft | 435 kts | 13° |
| 2026-05-05 06:16 | 42.00933 | 141.47042 | 25374 ft | 427 kts | 11° |
| 2026-05-05 06:16 | 42.03741 | 141.48296 | 24812 ft | 423 kts | 11° |
| 2026-05-05 06:16 | 42.06518 | 141.49546 | 24253 ft | 420 kts | 11° |
| 2026-05-05 06:17 | 42.09282 | 141.50804 | 23688 ft | 419 kts | 11° |
| 2026-05-05 06:17 | 42.12038 | 141.52098 | 23073 ft | 421 kts | 14° |
| 2026-05-05 06:17 | 42.14710 | 141.53784 | 22503 ft | 425 kts | 21° |
| 2026-05-05 06:17 | 42.17303 | 141.55687 | 21974 ft | 424 kts | 21° |
| 2026-05-05 06:18 | 42.19868 | 141.57607 | 21401 ft | 420 kts | 21° |
| 2026-05-05 06:18 | 42.22418 | 141.59514 | 20835 ft | 417 kts | 21° |
| 2026-05-05 06:18 | 42.24945 | 141.61402 | 20273 ft | 414 kts | 21° |
| 2026-05-05 06:18 | 42.27451 | 141.63274 | 19709 ft | 411 kts | 22° |
| 2026-05-05 06:19 | 42.29952 | 141.65141 | 19141 ft | 408 kts | 22° |
| 2026-05-05 06:19 | 42.32395 | 141.66966 | 18574 ft | 406 kts | 22° |
| 2026-05-05 06:19 | 42.34856 | 141.68807 | 17967 ft | 403 kts | 22° |
| 2026-05-05 06:19 | 42.37298 | 141.70638 | 17384 ft | 399 kts | 21° |
| 2026-05-05 06:20 | 42.39715 | 141.72449 | 16802 ft | 394 kts | 21° |
| 2026-05-05 06:20 | 42.42099 | 141.74237 | 16234 ft | 390 kts | 22° |
| 2026-05-05 06:20 | 42.44456 | 141.76005 | 15668 ft | 386 kts | 22° |
| 2026-05-05 06:20 | 42.46794 | 141.77760 | 15087 ft | 382 kts | 22° |
| 2026-05-05 06:21 | 42.48664 | 141.79165 | 14644 ft | 378 kts | 22° |
| 2026-05-05 06:21 | 42.50646 | 141.80655 | 14176 ft | 375 kts | 22° |
| 2026-05-05 06:21 | 42.52914 | 141.82362 | 13611 ft | 370 kts | 22° |
| 2026-05-05 06:21 | 42.55152 | 141.84048 | 13082 ft | 366 kts | 22° |
| 2026-05-05 06:22 | 42.57399 | 141.85626 | 12529 ft | 360 kts | 16° |
| 2026-05-05 06:22 | 42.59761 | 141.86486 | 12005 ft | 346 kts | 360° |
| 2026-05-05 06:22 | 42.62130 | 141.86502 | 11520 ft | 337 kts | 351° |
| 2026-05-05 06:22 | 42.64407 | 141.86286 | 11361 ft | 319 kts | 349° |
| 2026-05-05 06:23 | 42.66566 | 141.86068 | 11229 ft | 303 kts | 349° |
| 2026-05-05 06:23 | 42.68613 | 141.85864 | 11084 ft | 288 kts | 349° |
| 2026-05-05 06:23 | 42.70558 | 141.85673 | 10955 ft | 274 kts | 349° |
| 2026-05-05 06:23 | 42.72414 | 141.85491 | 10815 ft | 261 kts | 349° |
| 2026-05-05 06:24 | 42.74188 | 141.85313 | 10688 ft | 253 kts | 349° |
| 2026-05-05 06:24 | 42.75939 | 141.85138 | 10567 ft | 252 kts | 349° |
| 2026-05-05 06:24 | 42.77688 | 141.84965 | 10432 ft | 252 kts | 349° |
| 2026-05-05 06:24 | 42.79435 | 141.84794 | 10206 ft | 252 kts | 349° |
| 2026-05-05 06:25 | 42.81178 | 141.84623 | 9904 ft | 251 kts | 349° |
| 2026-05-05 06:25 | 42.82951 | 141.84272 | 9704 ft | 263 kts | 341° |
| 2026-05-05 06:25 | 42.84752 | 141.83729 | 9436 ft | 265 kts | 340° |
| 2026-05-05 06:25 | 42.86544 | 141.83157 | 8945 ft | 265 kts | 339° |
| 2026-05-05 06:26 | 42.88340 | 141.82582 | 8592 ft | 265 kts | 340° |
| 2026-05-05 06:26 | 42.90141 | 141.82007 | 8246 ft | 266 kts | 340° |
| 2026-05-05 06:26 | 42.91945 | 141.81433 | 7900 ft | 266 kts | 340° |
| 2026-05-05 06:26 | 42.93747 | 141.80862 | 7580 ft | 265 kts | 340° |
| 2026-05-05 06:27 | 42.95544 | 141.80292 | 7247 ft | 265 kts | 340° |
| 2026-05-05 06:27 | 42.99137 | 141.79141 | 6589 ft | 264 kts | 339° |
| 2026-05-05 06:27 | 43.00794 | 141.78183 | 6237 ft | 255 kts | 320° |
| 2026-05-05 06:28 | 43.02208 | 141.76742 | 5890 ft | 253 kts | 315° |
| 2026-05-05 06:28 | 43.03564 | 141.75219 | 5566 ft | 253 kts | 315° |
| 2026-05-05 06:28 | 43.04914 | 141.73683 | 5222 ft | 252 kts | 314° |
| 2026-05-05 06:28 | 43.06028 | 141.71882 | 4880 ft | 246 kts | 295° |
| 2026-05-05 06:29 | 43.06528 | 141.69683 | 4536 ft | 244 kts | 272° |
| 2026-05-05 06:29 | 43.06307 | 141.67414 | 4199 ft | 241 kts | 249° |
| 2026-05-05 06:29 | 43.05368 | 141.65550 | 3864 ft | 243 kts | 219° |
| 2026-05-05 06:29 | 43.03786 | 141.64777 | 3553 ft | 247 kts | 185° |
| 2026-05-05 06:30 | 43.02118 | 141.64977 | 3449 ft | 235 kts | 174° |
| 2026-05-05 06:30 | 43.00551 | 141.65344 | 3334 ft | 221 kts | 176° |
| 2026-05-05 06:30 | 42.99079 | 141.65636 | 3236 ft | 206 kts | 177° |
| 2026-05-05 06:30 | 42.97712 | 141.65882 | 3162 ft | 190 kts | 178° |
| 2026-05-05 06:31 | 42.96457 | 141.66093 | 3064 ft | 175 kts | 178° |
| 2026-05-05 06:31 | 42.95281 | 141.66286 | 2980 ft | 167 kts | 179° |
| 2026-05-05 06:31 | 42.94130 | 141.66477 | 2878 ft | 167 kts | 178° |
| 2026-05-05 06:31 | 42.92970 | 141.66678 | 2609 ft | 168 kts | 179° |
| 2026-05-05 06:32 | 42.91848 | 141.66879 | 2463 ft | 156 kts | 179° |
| 2026-05-05 06:32 | 42.90803 | 141.67068 | 2203 ft | 148 kts | 179° |
| 2026-05-05 06:32 | 42.89782 | 141.67251 | 2025 ft | 148 kts | 179° |
| 2026-05-05 06:32 | 42.88801 | 141.67425 | 1985 ft | 136 kts | 179° |
| 2026-05-05 06:33 | 42.87891 | 141.67584 | 1900 ft | 129 kts | 179° |
| 2026-05-05 06:33 | 42.87006 | 141.67738 | 1735 ft | 128 kts | 178° |
| 2026-05-05 06:33 | 42.86126 | 141.67881 | 1544 ft | 127 kts | 178° |
| 2026-05-05 06:33 | 42.85250 | 141.68022 | 1389 ft | 127 kts | 178° |
| 2026-05-05 06:34 | 42.84375 | 141.68199 | 1220 ft | 128 kts | 176° |
| 2026-05-05 06:34 | 42.83507 | 141.68355 | 1021 ft | 124 kts | 177° |
| 2026-05-05 06:34 | 42.82650 | 141.68485 | 836 ft | 125 kts | 174° |
| 2026-05-05 06:34 | 42.81781 | 141.68657 | 671 ft | 127 kts | 171° |
| 2026-05-05 06:35 | 42.80915 | 141.68818 | 539 ft | 124 kts | 173° |
| 2026-05-05 06:35 | 42.80072 | 141.68964 | 358 ft | 121 kts | 174° |
| 2026-05-05 06:35 | 42.79238 | 141.69106 | 202 ft | 120 kts | 172° |
| 2026-05-05 06:35 | 42.78407 | 141.69269 | 98 ft | 119 kts | 182° |
| 2026-05-05 06:36 | 42.77655 | 141.69385 | 86 ft | 92 kts | 173° |
| 2026-05-05 06:36 | 42.77154 | 141.69475 | 89 ft | 53 kts | 173° |
| 2026-05-05 06:36 | 42.76904 | 141.69513 | 88 ft | 29 kts | 178° |
| 2026-05-05 06:36 | 42.76709 | 141.69445 | 89 ft | 28 kts | 202° |
| 2026-05-05 06:37 | 42.76618 | 141.69333 | 88 ft | 15 kts | 259° |
| 2026-05-05 06:37 | 42.76601 | 141.69176 | 87 ft | 18 kts | 262° |
| 2026-05-05 06:37 | 42.76610 | 141.69013 | 89 ft | 17 kts | 311° |
| 2026-05-05 06:37 | 42.76732 | 141.68957 | 89 ft | 21 kts | 352° |
| 2026-05-05 06:38 | 42.76889 | 141.68928 | 90 ft | 26 kts | 353° |
| 2026-05-05 06:38 | 42.77117 | 141.68887 | 90 ft | 39 kts | 352° |
| 2026-05-05 06:38 | 42.77341 | 141.68850 | 90 ft | 24 kts | 353° |
| 2026-05-05 06:38 | 42.77504 | 141.68775 | 88 ft | 26 kts | 301° |
| 2026-05-05 06:39 | 42.77502 | 141.68525 | 87 ft | 28 kts | 262° |
| 2026-05-05 06:39 | 42.77478 | 141.68254 | 89 ft | 30 kts | 264° |
| 2026-05-05 06:39 | 42.77530 | 141.67982 | 87 ft | 31 kts | 288° |
| 2026-05-05 06:39 | 42.77595 | 141.67703 | 86 ft | 25 kts | 286° |
| 2026-05-05 06:40 | 42.77671 | 141.67564 | 90 ft | 18 kts | 349° |
| 2026-05-05 06:40 | 42.77847 | 141.67530 | 87 ft | 36 kts | 353° |
| 2026-05-05 06:40 | 42.78109 | 141.67485 | 88 ft | 39 kts | 353° |
| 2026-05-05 06:40 | 42.78342 | 141.67444 | 87 ft | 26 kts | 352° |
| 2026-05-05 06:41 | 42.78468 | 141.67426 | 90 ft | 7 kts | 17° |
| 2026-05-05 06:41 | 42.78488 | 141.67489 | 89 ft | 4 kts | 82° |
| 2026-05-05 06:41 | 42.78490 | 141.67517 | 90 ft | 1 kts | 84° |
| 2026-05-05 06:41 | 42.78492 | 141.67530 | 90 ft | 0 kts | 83° |